Terminal Aerodrome Forecast
Issued by NWS

Home | Current Version | Previous Version | Text Only | Print | Product List | Glossary On
Versions: 1 2 3 4 5 6 7 8 9 10 11 12 13 14 15 16 17
000
FTUS41 KBTV 202330
TAFMSS
TAF
KMSS 202330Z 2100/2124 22007KT P6SM FEW150
     FM210600 VRB03KT P6SM FEW090
     FM211400 26008KT P6SM SCT045
     FM212000 28009KT P6SM FEW150=

USA.gov is the U.S. government's official web portal to all federal, state and local government web resources and services.